sensor_id;sensor_type;location;lat;lon;timestamp;temperature;humidity
44729;DHT22;30457;53.590;9.922;2022-09-27T00:01:54;15.40;61.00
44729;DHT22;30457;53.590;9.922;2022-09-27T00:06:26;15.40;61.10
44729;DHT22;30457;53.590;9.922;2022-09-27T00:11:07;15.40;61.20
44729;DHT22;30457;53.590;9.922;2022-09-27T00:15:33;15.40;61.60
44729;DHT22;30457;53.590;9.922;2022-09-27T00:19:59;15.40;61.00
44729;DHT22;30457;53.590;9.922;2022-09-27T00:24:25;15.40;61.00
44729;DHT22;30457;53.590;9.922;2022-09-27T00:28:51;15.40;61.10
44729;DHT22;30457;53.590;9.922;2022-09-27T00:33:16;15.40;61.30
44729;DHT22;30457;53.590;9.922;2022-09-27T00:37:42;15.40;61.40
44729;DHT22;30457;53.590;9.922;2022-09-27T00:42:10;15.40;61.40
44729;DHT22;30457;53.590;9.922;2022-09-27T00:46:43;15.40;61.30
44729;DHT22;30457;53.590;9.922;2022-09-27T00:51:09;15.40;61.30
44729;DHT22;30457;53.590;9.922;2022-09-27T00:55:39;15.40;61.40
44729;DHT22;30457;53.590;9.922;2022-09-27T01:00:10;15.40;61.40
44729;DHT22;30457;53.590;9.922;2022-09-27T01:04:36;15.40;62.10
44729;DHT22;30457;53.590;9.922;2022-09-27T01:09:04;15.40;61.40
44729;DHT22;30457;53.590;9.922;2022-09-27T01:13:42;15.40;61.30
44729;DHT22;30457;53.590;9.922;2022-09-27T01:23:22;15.50;61.30
44729;DHT22;30457;53.590;9.922;2022-09-27T01:28:16;15.50;61.60
44729;DHT22;30457;53.590;9.922;2022-09-27T01:32:49;15.50;61.30
44729;DHT22;30457;53.590;9.922;2022-09-27T01:46:50;15.50;61.60
44729;DHT22;30457;53.590;9.922;2022-09-27T01:51:46;15.50;61.50
44729;DHT22;30457;53.590;9.922;2022-09-27T01:56:16;15.50;61.30
44729;DHT22;30457;53.590;9.922;2022-09-27T02:00:56;15.50;61.00
44729;DHT22;30457;53.590;9.922;2022-09-27T02:05:28;15.50;61.00
44729;DHT22;30457;53.590;9.922;2022-09-27T02:10:00;15.50;61.10
44729;DHT22;30457;53.590;9.922;2022-09-27T02:14:54;15.50;60.80
44729;DHT22;30457;53.590;9.922;2022-09-27T02:19:37;15.40;61.10
44729;DHT22;30457;53.590;9.922;2022-09-27T02:24:08;15.40;61.40
44729;DHT22;30457;53.590;9.922;2022-09-27T02:28:44;15.40;61.20
44729;DHT22;30457;53.590;9.922;2022-09-27T02:33:26;15.50;61.30
44729;DHT22;30457;53.590;9.922;2022-09-27T02:37:54;15.40;61.20
44729;DHT22;30457;53.590;9.922;2022-09-27T02:42:19;15.50;61.30
44729;DHT22;30457;53.590;9.922;2022-09-27T02:47:17;15.40;61.20
44729;DHT22;30457;53.590;9.922;2022-09-27T03:07:12;15.40;61.10
44729;DHT22;30457;53.590;9.922;2022-09-27T03:11:38;15.40;61.10
44729;DHT22;30457;53.590;9.922;2022-09-27T03:16:05;15.40;61.10
44729;DHT22;30457;53.590;9.922;2022-09-27T03:20:47;15.40;61.00
44729;DHT22;30457;53.590;9.922;2022-09-27T03:25:15;15.40;61.00
44729;DHT22;30457;53.590;9.922;2022-09-27T03:29:41;15.40;61.20
44729;DHT22;30457;53.590;9.922;2022-09-27T03:34:08;15.40;61.30
44729;DHT22;30457;53.590;9.922;2022-09-27T03:38:33;15.40;61.40
44729;DHT22;30457;53.590;9.922;2022-09-27T03:42:59;15.40;61.30
44729;DHT22;30457;53.590;9.922;2022-09-27T03:47:25;15.40;61.40
44729;DHT22;30457;53.590;9.922;2022-09-27T03:51:51;15.40;61.60
44729;DHT22;30457;53.590;9.922;2022-09-27T03:56:16;15.40;62.40
44729;DHT22;30457;53.590;9.922;2022-09-27T04:00:42;15.40;61.50
44729;DHT22;30457;53.590;9.922;2022-09-27T04:05:10;15.40;61.40
44729;DHT22;30457;53.590;9.922;2022-09-27T04:09:35;15.40;61.20
44729;DHT22;30457;53.590;9.922;2022-09-27T04:14:02;15.40;61.10
44729;DHT22;30457;53.590;9.922;2022-09-27T04:18:33;15.40;61.20
44729;DHT22;30457;53.590;9.922;2022-09-27T04:23:17;15.40;61.30
44729;DHT22;30457;53.590;9.922;2022-09-27T04:27:49;15.40;61.30
44729;DHT22;30457;53.590;9.922;2022-09-27T04:32:20;15.40;61.40
44729;DHT22;30457;53.590;9.922;2022-09-27T04:37:04;15.40;61.60
44729;DHT22;30457;53.590;9.922;2022-09-27T04:41:37;15.40;61.60
44729;DHT22;30457;53.590;9.922;2022-09-27T04:46:03;15.40;61.60
44729;DHT22;30457;53.590;9.922;2022-09-27T04:50:29;15.40;61.70
44729;DHT22;30457;53.590;9.922;2022-09-27T04:55:12;15.40;61.60
44729;DHT22;30457;53.590;9.922;2022-09-27T04:59:38;15.40;61.60
44729;DHT22;30457;53.590;9.922;2022-09-27T05:04:06;15.40;61.70
44729;DHT22;30457;53.590;9.922;2022-09-27T05:08:34;15.40;61.90
44729;DHT22;30457;53.590;9.922;2022-09-27T05:13:13;15.40;62.00
44729;DHT22;30457;53.590;9.922;2022-09-27T05:17:39;15.40;61.90
44729;DHT22;30457;53.590;9.922;2022-09-27T05:22:23;15.40;62.00
44729;DHT22;30457;53.590;9.922;2022-09-27T05:26:50;15.40;61.90
44729;DHT22;30457;53.590;9.922;2022-09-27T05:31:15;15.40;61.90
44729;DHT22;30457;53.590;9.922;2022-09-27T05:35:42;15.40;61.90
44729;DHT22;30457;53.590;9.922;2022-09-27T05:40:09;15.40;62.00
44729;DHT22;30457;53.590;9.922;2022-09-27T05:44:35;15.40;62.10
44729;DHT22;30457;53.590;9.922;2022-09-27T05:49:02;15.40;62.10
44729;DHT22;30457;53.590;9.922;2022-09-27T05:53:28;15.40;62.20
44729;DHT22;30457;53.590;9.922;2022-09-27T05:57:59;15.40;62.30
44729;DHT22;30457;53.590;9.922;2022-09-27T06:02:32;15.40;62.30
44729;DHT22;30457;53.590;9.922;2022-09-27T06:07:33;15.50;62.30
44729;DHT22;30457;53.590;9.922;2022-09-27T06:12:01;15.40;62.20
44729;DHT22;30457;53.590;9.922;2022-09-27T06:16:27;15.40;62.30
44729;DHT22;30457;53.590;9.922;2022-09-27T06:20:53;15.40;62.40
44729;DHT22;30457;53.590;9.922;2022-09-27T06:25:19;15.40;62.50
44729;DHT22;30457;53.590;9.922;2022-09-27T06:30:01;15.40;62.50
44729;DHT22;30457;53.590;9.922;2022-09-27T06:34:40;15.40;62.40
44729;DHT22;30457;53.590;9.922;2022-09-27T06:39:06;15.40;62.50
44729;DHT22;30457;53.590;9.922;2022-09-27T06:43:39;15.40;62.50
44729;DHT22;30457;53.590;9.922;2022-09-27T06:48:13;15.40;62.60
44729;DHT22;30457;53.590;9.922;2022-09-27T06:52:50;15.40;62.50
44729;DHT22;30457;53.590;9.922;2022-09-27T06:57:18;15.40;62.40
44729;DHT22;30457;53.590;9.922;2022-09-27T07:02:03;15.40;62.40
44729;DHT22;30457;53.590;9.922;2022-09-27T07:06:47;15.40;62.50
44729;DHT22;30457;53.590;9.922;2022-09-27T07:11:20;15.40;62.50
44729;DHT22;30457;53.590;9.922;2022-09-27T07:15:47;15.30;62.30
44729;DHT22;30457;53.590;9.922;2022-09-27T07:20:14;15.30;61.70
44729;DHT22;30457;53.590;9.922;2022-09-27T07:24:39;15.30;61.60
44729;DHT22;30457;53.590;9.922;2022-09-27T07:29:05;15.30;61.90
44729;DHT22;30457;53.590;9.922;2022-09-27T07:33:31;15.20;61.90
44729;DHT22;30457;53.590;9.922;2022-09-27T07:37:59;15.20;62.00
44729;DHT22;30457;53.590;9.922;2022-09-27T07:42:25;15.20;62.00
44729;DHT22;30457;53.590;9.922;2022-09-27T07:46:53;15.20;62.20
44729;DHT22;30457;53.590;9.922;2022-09-27T07:51:23;15.20;62.50
44729;DHT22;30457;53.590;9.922;2022-09-27T07:56:02;15.30;63.00
44729;DHT22;30457;53.590;9.922;2022-09-27T08:00:31;15.40;62.90
44729;DHT22;30457;53.590;9.922;2022-09-27T08:04:57;15.40;62.90
44729;DHT22;30457;53.590;9.922;2022-09-27T08:09:24;15.40;62.70
44729;DHT22;30457;53.590;9.922;2022-09-27T08:13:51;15.50;63.00
44729;DHT22;30457;53.590;9.922;2022-09-27T08:18:20;15.50;63.00
44729;DHT22;30457;53.590;9.922;2022-09-27T08:22:56;15.60;62.90
44729;DHT22;30457;53.590;9.922;2022-09-27T08:27:33;15.60;62.80
44729;DHT22;30457;53.590;9.922;2022-09-27T08:32:01;15.60;62.70
44729;DHT22;30457;53.590;9.922;2022-09-27T08:36:27;15.70;62.70
44729;DHT22;30457;53.590;9.922;2022-09-27T08:50:29;15.70;62.00
44729;DHT22;30457;53.590;9.922;2022-09-27T08:55:19;15.70;62.20
44729;DHT22;30457;53.590;9.922;2022-09-27T08:59:48;15.70;61.90
44729;DHT22;30457;53.590;9.922;2022-09-27T09:04:42;15.70;61.70
44729;DHT22;30457;53.590;9.922;2022-09-27T09:19:40;15.60;62.90
44729;DHT22;30457;53.590;9.922;2022-09-27T09:29:12;15.50;62.10
44729;DHT22;30457;53.590;9.922;2022-09-27T09:33:48;15.50;61.90
44729;DHT22;30457;53.590;9.922;2022-09-27T09:38:19;15.50;61.80
44729;DHT22;30457;53.590;9.922;2022-09-27T09:43:04;15.50;61.80
44729;DHT22;30457;53.590;9.922;2022-09-27T09:47:55;15.40;61.70
44729;DHT22;30457;53.590;9.922;2022-09-27T09:52:26;15.40;62.10
44729;DHT22;30457;53.590;9.922;2022-09-27T09:57:15;15.40;61.90
44729;DHT22;30457;53.590;9.922;2022-09-27T10:01:45;15.40;62.30
44729;DHT22;30457;53.590;9.922;2022-09-27T10:06:12;15.40;62.00
44729;DHT22;30457;53.590;9.922;2022-09-27T10:10:39;15.40;62.10
44729;DHT22;30457;53.590;9.922;2022-09-27T10:15:34;15.40;62.30
44729;DHT22;30457;53.590;9.922;2022-09-27T10:20:01;15.40;62.50
44729;DHT22;30457;53.590;9.922;2022-09-27T10:24:28;15.40;62.50
44729;DHT22;30457;53.590;9.922;2022-09-27T10:33:56;15.50;62.80
44729;DHT22;30457;53.590;9.922;2022-09-27T10:38:27;15.50;62.90
44729;DHT22;30457;53.590;9.922;2022-09-27T10:43:01;15.50;63.00
44729;DHT22;30457;53.590;9.922;2022-09-27T10:47:45;15.60;62.70
44729;DHT22;30457;53.590;9.922;2022-09-27T10:52:24;15.70;62.70
44729;DHT22;30457;53.590;9.922;2022-09-27T10:56:55;15.70;62.50
44729;DHT22;30457;53.590;9.922;2022-09-27T11:01:21;15.80;63.20
44729;DHT22;30457;53.590;9.922;2022-09-27T11:06:23;15.90;62.50
44729;DHT22;30457;53.590;9.922;2022-09-27T11:20:26;16.00;62.10
44729;DHT22;30457;53.590;9.922;2022-09-27T11:25:25;16.00;62.10
44729;DHT22;30457;53.590;9.922;2022-09-27T11:30:08;16.00;62.00
44729;DHT22;30457;53.590;9.922;2022-09-27T11:40:04;16.10;62.20
44729;DHT22;30457;53.590;9.922;2022-09-27T12:03:58;16.40;61.80
44729;DHT22;30457;53.590;9.922;2022-09-27T12:13:13;16.50;61.20
44729;DHT22;30457;53.590;9.922;2022-09-27T12:17:45;16.50;61.20
44729;DHT22;30457;53.590;9.922;2022-09-27T12:22:15;16.50;61.30
44729;DHT22;30457;53.590;9.922;2022-09-27T12:26:46;16.60;61.10
44729;DHT22;30457;53.590;9.922;2022-09-27T12:31:31;16.60;61.30
44729;DHT22;30457;53.590;9.922;2022-09-27T12:36:02;16.60;60.90
44729;DHT22;30457;53.590;9.922;2022-09-27T12:40:40;16.70;61.50
44729;DHT22;30457;53.590;9.922;2022-09-27T12:45:12;16.70;61.20
44729;DHT22;30457;53.590;9.922;2022-09-27T12:49:50;16.80;60.70
44729;DHT22;30457;53.590;9.922;2022-09-27T12:59:16;16.90;60.90
44729;DHT22;30457;53.590;9.922;2022-09-27T13:03:54;16.90;60.50
44729;DHT22;30457;53.590;9.922;2022-09-27T13:13:20;16.90;59.70
44729;DHT22;30457;53.590;9.922;2022-09-27T13:17:49;16.90;59.80
44729;DHT22;30457;53.590;9.922;2022-09-27T13:22:37;16.90;59.80
44729;DHT22;30457;53.590;9.922;2022-09-27T13:36:32;16.90;60.50
44729;DHT22;30457;53.590;9.922;2022-09-27T13:41:19;16.90;61.00
44729;DHT22;30457;53.590;9.922;2022-09-27T13:46:01;17.00;60.10
44729;DHT22;30457;53.590;9.922;2022-09-27T13:55:47;17.00;59.80
44729;DHT22;30457;53.590;9.922;2022-09-27T14:00:23;17.00;58.90
44729;DHT22;30457;53.590;9.922;2022-09-27T14:04:55;17.10;58.80
44729;DHT22;30457;53.590;9.922;2022-09-27T14:09:30;17.00;59.10
44729;DHT22;30457;53.590;9.922;2022-09-27T14:14:21;17.00;59.30
44729;DHT22;30457;53.590;9.922;2022-09-27T14:18:54;17.00;59.70
44729;DHT22;30457;53.590;9.922;2022-09-27T14:23:29;17.00;59.30
44729;DHT22;30457;53.590;9.922;2022-09-27T14:28:00;16.90;59.20
44729;DHT22;30457;53.590;9.922;2022-09-27T14:32:45;16.90;59.10
44729;DHT22;30457;53.590;9.922;2022-09-27T14:37:22;16.80;58.90
44729;DHT22;30457;53.590;9.922;2022-09-27T14:41:54;16.80;59.00
44729;DHT22;30457;53.590;9.922;2022-09-27T14:51:17;16.70;59.30
44729;DHT22;30457;53.590;9.922;2022-09-27T14:55:44;16.80;59.70
44729;DHT22;30457;53.590;9.922;2022-09-27T15:00:26;16.70;59.60
44729;DHT22;30457;53.590;9.922;2022-09-27T15:04:53;16.80;59.30
44729;DHT22;30457;53.590;9.922;2022-09-27T15:09:19;16.90;58.90
44729;DHT22;30457;53.590;9.922;2022-09-27T15:13:49;16.80;58.80
44729;DHT22;30457;53.590;9.922;2022-09-27T15:18:41;16.80;58.40
44729;DHT22;30457;53.590;9.922;2022-09-27T15:23:43;16.80;58.60
44729;DHT22;30457;53.590;9.922;2022-09-27T15:32:35;16.80;58.80
44729;DHT22;30457;53.590;9.922;2022-09-27T15:37:02;16.80;58.70
44729;DHT22;30457;53.590;9.922;2022-09-27T15:42:01;16.80;58.60
44729;DHT22;30457;53.590;9.922;2022-09-27T15:46:32;16.80;58.10
44729;DHT22;30457;53.590;9.922;2022-09-27T15:50:59;16.70;58.20
44729;DHT22;30457;53.590;9.922;2022-09-27T15:55:26;16.70;58.20
44729;DHT22;30457;53.590;9.922;2022-09-27T15:59:52;16.60;58.20
44729;DHT22;30457;53.590;9.922;2022-09-27T16:04:18;16.60;58.10
44729;DHT22;30457;53.590;9.922;2022-09-27T16:08:44;16.50;58.10
44729;DHT22;30457;53.590;9.922;2022-09-27T16:13:09;16.50;58.10
44729;DHT22;30457;53.590;9.922;2022-09-27T16:17:35;16.50;57.70
44729;DHT22;30457;53.590;9.922;2022-09-27T16:22:02;16.40;57.60
44729;DHT22;30457;53.590;9.922;2022-09-27T16:26:29;16.30;57.70
44729;DHT22;30457;53.590;9.922;2022-09-27T16:31:00;16.20;58.10
44729;DHT22;30457;53.590;9.922;2022-09-27T16:35:27;16.10;58.10
44729;DHT22;30457;53.590;9.922;2022-09-27T16:39:52;16.20;58.10
44729;DHT22;30457;53.590;9.922;2022-09-27T16:44:18;16.20;58.20
44729;DHT22;30457;53.590;9.922;2022-09-27T16:48:46;16.10;58.30
44729;DHT22;30457;53.590;9.922;2022-09-27T16:53:12;16.10;58.20
44729;DHT22;30457;53.590;9.922;2022-09-27T16:57:38;16.10;58.20
44729;DHT22;30457;53.590;9.922;2022-09-27T17:02:04;16.00;58.30
44729;DHT22;30457;53.590;9.922;2022-09-27T17:06:29;16.00;58.20
44729;DHT22;30457;53.590;9.922;2022-09-27T17:10:56;16.00;58.10
44729;DHT22;30457;53.590;9.922;2022-09-27T17:15:22;16.00;58.30
44729;DHT22;30457;53.590;9.922;2022-09-27T17:19:47;16.00;58.30
44729;DHT22;30457;53.590;9.922;2022-09-27T17:24:13;16.00;58.30
44729;DHT22;30457;53.590;9.922;2022-09-27T17:28:39;15.90;58.10
44729;DHT22;30457;53.590;9.922;2022-09-27T17:33:05;15.90;58.10
44729;DHT22;30457;53.590;9.922;2022-09-27T17:37:30;15.90;58.20
44729;DHT22;30457;53.590;9.922;2022-09-27T17:41:56;15.80;58.00
44729;DHT22;30457;53.590;9.922;2022-09-27T17:46:25;15.80;58.10
44729;DHT22;30457;53.590;9.922;2022-09-27T17:50:51;15.70;58.00
44729;DHT22;30457;53.590;9.922;2022-09-27T17:55:17;15.70;58.10
44729;DHT22;30457;53.590;9.922;2022-09-27T17:59:43;15.60;58.00
44729;DHT22;30457;53.590;9.922;2022-09-27T18:04:10;15.60;58.00
44729;DHT22;30457;53.590;9.922;2022-09-27T18:08:36;15.60;58.10
44729;DHT22;30457;53.590;9.922;2022-09-27T18:13:02;15.50;58.10
44729;DHT22;30457;53.590;9.922;2022-09-27T18:17:28;15.40;58.20
44729;DHT22;30457;53.590;9.922;2022-09-27T18:21:54;15.40;58.40
44729;DHT22;30457;53.590;9.922;2022-09-27T18:26:20;15.30;58.40
44729;DHT22;30457;53.590;9.922;2022-09-27T18:30:48;15.30;58.70
44729;DHT22;30457;53.590;9.922;2022-09-27T18:35:13;15.20;58.80
44729;DHT22;30457;53.590;9.922;2022-09-27T18:39:39;15.20;58.90
44729;DHT22;30457;53.590;9.922;2022-09-27T18:44:05;15.20;59.00
44729;DHT22;30457;53.590;9.922;2022-09-27T18:48:32;15.20;59.10
44729;DHT22;30457;53.590;9.922;2022-09-27T18:52:57;15.20;59.10
44729;DHT22;30457;53.590;9.922;2022-09-27T18:57:23;15.10;59.10
44729;DHT22;30457;53.590;9.922;2022-09-27T19:01:49;15.10;59.20
44729;DHT22;30457;53.590;9.922;2022-09-27T19:06:19;15.10;59.30
44729;DHT22;30457;53.590;9.922;2022-09-27T19:10:45;15.00;59.30
44729;DHT22;30457;53.590;9.922;2022-09-27T19:15:11;15.00;59.30
44729;DHT22;30457;53.590;9.922;2022-09-27T19:19:37;15.00;59.40
44729;DHT22;30457;53.590;9.922;2022-09-27T19:24:02;15.00;59.40
44729;DHT22;30457;53.590;9.922;2022-09-27T19:28:33;14.90;59.40
44729;DHT22;30457;53.590;9.922;2022-09-27T19:32:59;14.90;59.60
44729;DHT22;30457;53.590;9.922;2022-09-27T19:37:25;14.90;59.50
44729;DHT22;30457;53.590;9.922;2022-09-27T19:41:51;14.90;59.60
44729;DHT22;30457;53.590;9.922;2022-09-27T19:46:17;14.80;59.70
44729;DHT22;30457;53.590;9.922;2022-09-27T19:50:43;14.80;59.70
44729;DHT22;30457;53.590;9.922;2022-09-27T19:55:09;14.80;59.80
44729;DHT22;30457;53.590;9.922;2022-09-27T19:59:35;14.80;59.90
44729;DHT22;30457;53.590;9.922;2022-09-27T20:04:00;14.80;60.00
44729;DHT22;30457;53.590;9.922;2022-09-27T20:08:27;14.80;60.00
44729;DHT22;30457;53.590;9.922;2022-09-27T20:12:53;14.80;60.10
44729;DHT22;30457;53.590;9.922;2022-09-27T20:17:19;14.80;60.10
44729;DHT22;30457;53.590;9.922;2022-09-27T20:21:44;14.70;60.00
44729;DHT22;30457;53.590;9.922;2022-09-27T20:26:12;14.70;60.20
44729;DHT22;30457;53.590;9.922;2022-09-27T20:30:38;14.70;60.30
44729;DHT22;30457;53.590;9.922;2022-09-27T20:39:46;14.70;61.20
44729;DHT22;30457;53.590;9.922;2022-09-27T20:44:16;14.70;60.40
44729;DHT22;30457;53.590;9.922;2022-09-27T20:48:43;14.70;60.60
44729;DHT22;30457;53.590;9.922;2022-09-27T20:53:08;14.70;60.50
44729;DHT22;30457;53.590;9.922;2022-09-27T20:57:34;14.70;60.40
44729;DHT22;30457;53.590;9.922;2022-09-27T21:01:59;14.70;60.40
44729;DHT22;30457;53.590;9.922;2022-09-27T21:06:26;14.70;60.60
44729;DHT22;30457;53.590;9.922;2022-09-27T21:10:51;14.70;60.50
44729;DHT22;30457;53.590;9.922;2022-09-27T21:15:18;14.70;60.50
44729;DHT22;30457;53.590;9.922;2022-09-27T21:19:43;14.70;60.40
44729;DHT22;30457;53.590;9.922;2022-09-27T21:24:09;14.60;60.20
44729;DHT22;30457;53.590;9.922;2022-09-27T21:33:01;14.60;60.10
44729;DHT22;30457;53.590;9.922;2022-09-27T21:37:27;14.50;60.00
44729;DHT22;30457;53.590;9.922;2022-09-27T21:41:53;14.50;60.00
44729;DHT22;30457;53.590;9.922;2022-09-27T21:46:24;14.50;60.00
44729;DHT22;30457;53.590;9.922;2022-09-27T21:50:49;14.40;60.00
44729;DHT22;30457;53.590;9.922;2022-09-27T21:55:15;14.40;60.10
44729;DHT22;30457;53.590;9.922;2022-09-27T21:59:40;14.40;60.20
44729;DHT22;30457;53.590;9.922;2022-09-27T22:04:06;14.30;60.00
44729;DHT22;30457;53.590;9.922;2022-09-27T22:08:32;14.30;60.00
44729;DHT22;30457;53.590;9.922;2022-09-27T22:12:58;14.20;59.80
44729;DHT22;30457;53.590;9.922;2022-09-27T22:17:24;14.20;59.80
44729;DHT22;30457;53.590;9.922;2022-09-27T22:21:49;14.10;59.80
44729;DHT22;30457;53.590;9.922;2022-09-27T22:26:17;14.10;59.70
44729;DHT22;30457;53.590;9.922;2022-09-27T22:30:43;14.10;59.80
44729;DHT22;30457;53.590;9.922;2022-09-27T22:35:08;14.00;59.80
44729;DHT22;30457;53.590;9.922;2022-09-27T22:39:34;14.00;59.70
44729;DHT22;30457;53.590;9.922;2022-09-27T22:44:00;13.90;59.70
44729;DHT22;30457;53.590;9.922;2022-09-27T22:48:29;13.90;59.60
44729;DHT22;30457;53.590;9.922;2022-09-27T22:52:56;13.80;59.60
44729;DHT22;30457;53.590;9.922;2022-09-27T22:57:21;13.80;59.70
44729;DHT22;30457;53.590;9.922;2022-09-27T23:01:47;13.80;59.70
44729;DHT22;30457;53.590;9.922;2022-09-27T23:06:14;13.70;59.70
44729;DHT22;30457;53.590;9.922;2022-09-27T23:10:40;13.70;59.70
44729;DHT22;30457;53.590;9.922;2022-09-27T23:15:06;13.60;59.80
44729;DHT22;30457;53.590;9.922;2022-09-27T23:19:32;13.60;59.80
44729;DHT22;30457;53.590;9.922;2022-09-27T23:23:58;13.60;60.00
44729;DHT22;30457;53.590;9.922;2022-09-27T23:28:26;13.60;60.10
44729;DHT22;30457;53.590;9.922;2022-09-27T23:32:53;13.60;60.00
44729;DHT22;30457;53.590;9.922;2022-09-27T23:37:19;13.60;59.90
44729;DHT22;30457;53.590;9.922;2022-09-27T23:41:45;13.60;60.00
44729;DHT22;30457;53.590;9.922;2022-09-27T23:46:14;13.60;59.90
44729;DHT22;30457;53.590;9.922;2022-09-27T23:50:42;13.60;59.80
44729;DHT22;30457;53.590;9.922;2022-09-27T23:55:08;13.60;59.80
44729;DHT22;30457;53.590;9.922;2022-09-27T23:59:34;13.60;59.70
